Time;durP1;ratioP1;P1;durP2;ratioP2;P2;SDS_P1;SDS_P2;PMS_P1;PMS_P2;Temp;Humidity;BMP_temperature;BMP_pressure;BME280_temperature;BME280_humidity;BME280_pressure;Samples;Min_cycle;Max_cycle;Signal;HPM_P1;HPM_P2
2022/12/03 00:01:26;;;;;;;;;;;1.60;99.90;;;;;;5097335;28;20182;-68
2022/12/03 00:03:53;;;;;;;;;;;1.60;99.90;;;;;;5104509;28;20119;-69
2022/12/03 00:06:20;;;;;;;;;;;1.50;99.90;;;;;;5103968;28;19956;-69
2022/12/03 00:08:46;;;;;;;;;;;1.60;99.90;;;;;;5104527;28;19959;-69
2022/12/03 00:11:14;;;;;;;;;;;1.60;99.90;;;;;;5104099;28;19947;-68
2022/12/03 00:13:41;;;;;;;;;;;1.60;99.90;;;;;;5103791;28;19920;-68
2022/12/03 00:16:08;;;;;;;;;;;1.60;99.90;;;;;;5103838;28;19958;-70
2022/12/03 00:18:34;;;;;;;;;;;1.60;99.90;;;;;;5104437;28;20298;-69
2022/12/03 00:21:01;;;;;;;;;;;1.60;99.90;;;;;;5104030;28;20248;-69
2022/12/03 00:23:27;;;;;;;;;;;1.60;99.90;;;;;;5104143;28;19999;-69
2022/12/03 00:25:54;;;;;;;;;;;1.60;99.90;;;;;;5103916;28;20169;-69
2022/12/03 00:28:22;;;;;;;;;;;1.60;99.90;;;;;;5103826;28;19983;-68
2022/12/03 00:30:52;;;;;;;;;;;1.60;99.90;;;;;;5104077;28;19920;-69
2022/12/03 00:33:19;;;;;;;;;;;1.70;99.90;;;;;;5104124;28;19920;-69
2022/12/03 00:35:46;;;;;;;;;;;1.70;99.90;;;;;;5103828;28;19983;-70
2022/12/03 00:38:12;;;;;;;;;;;1.70;99.90;;;;;;5103868;28;19959;-69
2022/12/03 00:40:39;;;;;;;;;;;1.70;99.90;;;;;;5104124;28;19951;-69
2022/12/03 00:43:05;;;;;;;;;;;1.70;99.90;;;;;;5103844;28;19995;-69
2022/12/03 00:45:33;;;;;;;;;;;1.60;99.90;;;;;;5104002;28;19970;-69
2022/12/03 00:48:00;;;;;;;;;;;1.70;99.90;;;;;;5103511;28;19958;-69
2022/12/03 00:50:27;;;;;;;;;;;1.60;99.90;;;;;;5103991;28;20255;-69
2022/12/03 00:52:53;;;;;;;;;;;1.60;99.90;;;;;;5103986;28;19988;-69
2022/12/03 00:55:20;;;;;;;;;;;1.60;99.90;;;;;;5103939;28;20164;-69
2022/12/03 00:57:47;;;;;;;;;;;1.60;99.90;;;;;;5103371;28;19951;-69
2022/12/03 01:00:14;;;;;;;;;;;1.60;99.90;;;;;;5103745;28;19991;-69
2022/12/03 01:02:42;;;;;;;;;;;1.60;99.90;;;;;;5103798;28;19966;-68
2022/12/03 01:05:09;;;;;;;;;;;1.60;99.90;;;;;;5103906;28;19951;-69
2022/12/03 01:07:36;;;;;;;;;;;1.60;99.90;;;;;;5103255;28;19962;-69
2022/12/03 01:10:02;;;;;;;;;;;1.60;99.90;;;;;;5103746;28;19920;-68
2022/12/03 01:12:29;;;;;;;;;;;1.60;99.90;;;;;;5103385;28;19955;-69
2022/12/03 01:14:55;;;;;;;;;;;1.60;99.90;;;;;;5103785;28;19955;-69
2022/12/03 01:17:22;;;;;;;;;;;1.70;99.90;;;;;;5103303;28;19979;-68
2022/12/03 01:19:51;;;;;;;;;;;1.60;99.90;;;;;;5103374;28;20267;-69
2022/12/03 01:22:17;;;;;;;;;;;1.60;99.90;;;;;;5103394;28;20204;-69
2022/12/03 01:24:44;;;;;;;;;;;1.60;99.90;;;;;;5106617;28;19991;-69
2022/12/03 01:27:11;;;;;;;;;;;1.60;99.90;;;;;;5106883;28;19962;-69
2022/12/03 01:29:37;;;;;;;;;;;1.50;99.90;;;;;;5107567;28;19952;-69
2022/12/03 01:32:18;;;;;;;;;;;1.60;99.90;;;;;;5107504;28;19955;-69
2022/12/03 01:34:45;;;;;;;;;;;1.60;99.90;;;;;;5107135;28;19916;-68
2022/12/03 01:37:13;;;;;;;;;;;1.60;99.90;;;;;;5106787;28;20174;-69
2022/12/03 01:39:40;;;;;;;;;;;1.50;99.90;;;;;;5107108;28;19998;-68
2022/12/03 01:42:07;;;;;;;;;;;1.50;99.90;;;;;;5106753;28;19996;-69
2022/12/03 01:44:34;;;;;;;;;;;1.60;99.90;;;;;;5107284;28;19959;-68
2022/12/03 01:47:02;;;;;;;;;;;1.60;99.90;;;;;;5106577;28;19962;-69
2022/12/03 01:49:31;;;;;;;;;;;1.60;99.90;;;;;;5106874;28;19962;-69
2022/12/03 01:51:58;;;;;;;;;;;1.60;99.90;;;;;;5107215;28;19955;-69
2022/12/03 01:54:28;;;;;;;;;;;1.60;99.90;;;;;;5107104;28;19983;-69
2022/12/03 01:56:55;;;;;;;;;;;1.50;99.90;;;;;;5106310;28;19965;-69
2022/12/03 01:59:24;;;;;;;;;;;1.60;99.90;;;;;;5106980;28;19921;-69
2022/12/03 02:01:50;;;;;;;;;;;1.50;99.90;;;;;;5106943;28;19963;-68
2022/12/03 02:04:19;;;;;;;;;;;1.60;99.90;;;;;;5106768;28;19955;-69
2022/12/03 02:06:46;;;;;;;;;;;1.60;99.90;;;;;;5105958;28;20287;-69
2022/12/03 02:09:13;;;;;;;;;;;1.60;99.90;;;;;;5106513;28;20255;-69
2022/12/03 02:11:44;;;;;;;;;;;1.60;99.90;;;;;;5106454;28;20262;-68
2022/12/03 02:14:12;;;;;;;;;;;1.60;99.90;;;;;;5106492;28;20161;-69
2022/12/03 02:16:39;;;;;;;;;;;1.60;99.90;;;;;;5106124;28;19959;-69
2022/12/03 02:19:08;;;;;;;;;;;1.60;99.90;;;;;;5106478;28;19962;-69
2022/12/03 02:21:39;;;;;;;;;;;1.60;99.90;;;;;;5106676;28;19987;-69
2022/12/03 02:24:12;;;;;;;;;;;1.60;99.90;;;;;;5106464;28;19975;-69
2022/12/03 02:26:40;;;;;;;;;;;1.70;99.90;;;;;;5105553;28;19920;-68
2022/12/03 02:29:06;;;;;;;;;;;1.60;99.90;;;;;;5106221;28;19974;-69
2022/12/03 02:31:33;;;;;;;;;;;1.60;99.90;;;;;;5105995;28;19992;-69
2022/12/03 02:33:59;;;;;;;;;;;1.70;99.90;;;;;;5106342;28;20168;-69
2022/12/03 02:36:26;;;;;;;;;;;1.70;99.90;;;;;;5104718;28;20311;-68
2022/12/03 02:38:53;;;;;;;;;;;1.70;99.90;;;;;;5105976;28;20227;-69
2022/12/03 02:44:02;;;;;;;;;;;1.70;99.90;;;;;;5104799;28;19920;-69
2022/12/03 02:46:29;;;;;;;;;;;1.70;99.90;;;;;;5105056;28;20243;-69
2022/12/03 02:48:56;;;;;;;;;;;1.70;99.90;;;;;;5105527;28;19955;-69
2022/12/03 02:51:22;;;;;;;;;;;1.70;99.90;;;;;;5106072;28;19952;-69
2022/12/03 02:53:50;;;;;;;;;;;1.70;99.90;;;;;;5105971;28;19962;-69
2022/12/03 02:56:18;;;;;;;;;;;1.80;99.90;;;;;;5105244;28;19955;-70
2022/12/03 02:58:46;;;;;;;;;;;1.80;99.90;;;;;;5105404;28;20208;-70
2022/12/03 03:01:15;;;;;;;;;;;1.80;99.90;;;;;;5105661;28;19927;-70
2022/12/03 03:03:42;;;;;;;;;;;1.80;99.90;;;;;;5105296;28;19994;-69
2022/12/03 03:06:09;;;;;;;;;;;1.80;99.90;;;;;;5104829;28;20263;-69
2022/12/03 03:08:37;;;;;;;;;;;1.70;99.90;;;;;;5105337;28;19982;-69
2022/12/03 03:11:03;;;;;;;;;;;1.80;99.90;;;;;;5105190;28;19988;-69
2022/12/03 03:13:31;;;;;;;;;;;1.80;99.90;;;;;;5105085;28;20259;-69
2022/12/03 03:15:57;;;;;;;;;;;1.80;99.90;;;;;;5104995;28;20007;-68
2022/12/03 03:18:25;;;;;;;;;;;1.80;99.90;;;;;;5105296;28;19962;-69
2022/12/03 03:20:52;;;;;;;;;;;1.80;99.90;;;;;;5105466;28;19956;-69
2022/12/03 03:23:20;;;;;;;;;;;1.80;99.90;;;;;;5105167;28;19963;-68
2022/12/03 03:25:49;;;;;;;;;;;1.80;99.90;;;;;;5104758;28;19995;-70
2022/12/03 03:28:16;;;;;;;;;;;1.80;99.90;;;;;;5104455;28;19991;-69
2022/12/03 03:30:43;;;;;;;;;;;1.80;99.90;;;;;;5105085;28;19951;-70
2022/12/03 03:33:10;;;;;;;;;;;1.80;99.90;;;;;;5104921;28;19999;-73
2022/12/03 03:35:39;;;;;;;;;;;1.80;99.90;;;;;;5104978;28;19951;-70
2022/12/03 03:38:06;;;;;;;;;;;1.80;99.90;;;;;;5104592;28;19920;-69
2022/12/03 03:40:33;;;;;;;;;;;1.80;99.90;;;;;;5104721;28;19958;-69
2022/12/03 03:43:00;;;;;;;;;;;1.80;99.90;;;;;;5104692;28;19959;-69
2022/12/03 03:45:27;;;;;;;;;;;1.80;99.90;;;;;;5104551;28;19955;-69
2022/12/03 03:47:54;;;;;;;;;;;1.80;99.90;;;;;;5104135;28;19955;-69
2022/12/03 03:50:21;;;;;;;;;;;1.80;99.90;;;;;;5104605;28;19954;-69
2022/12/03 03:52:49;;;;;;;;;;;1.80;99.90;;;;;;5104560;28;19951;-69
2022/12/03 03:55:17;;;;;;;;;;;1.80;99.90;;;;;;5104590;28;19970;-68
2022/12/03 03:57:44;;;;;;;;;;;1.80;99.90;;;;;;5103975;28;19924;-69
2022/12/03 04:00:12;;;;;;;;;;;1.80;99.90;;;;;;5104486;28;19979;-69
2022/12/03 04:02:38;;;;;;;;;;;1.80;99.90;;;;;;5104432;28;19943;-69
2022/12/03 04:05:05;;;;;;;;;;;1.80;99.90;;;;;;5104138;28;19987;-68
2022/12/03 04:07:32;;;;;;;;;;;1.80;99.90;;;;;;5103577;28;19991;-69
2022/12/03 04:12:54;;;;;;;;;;;1.80;99.90;;;;;;5104341;28;19952;-69
2022/12/03 04:12:54;;;;;;;;;;;1.80;99.90;;;;;;5103982;28;20196;-69
2022/12/03 04:15:21;;;;;;;;;;;1.80;99.90;;;;;;5104350;28;20085;-69
2022/12/03 04:18:41;;;;;;;;;;;1.80;99.90;;;;;;5103736;28;19920;-69
2022/12/03 04:20:35;;;;;;;;;;;1.80;99.90;;;;;;5103902;28;19957;-68
2022/12/03 04:23:00;;;;;;;;;;;1.80;99.90;;;;;;5103852;28;19998;-70
2022/12/03 04:30:57;;;;;;;;;;;1.80;99.90;;;;;;5083805;28;19959;-69
2022/12/03 04:36:10;;;;;;;;;;;1.80;99.90;;;;;;5077294;28;19923;-70
2022/12/03 04:38:37;;;;;;;;;;;1.80;99.90;;;;;;5104142;28;19979;-69
2022/12/03 04:41:05;;;;;;;;;;;1.80;99.90;;;;;;5103778;28;20259;-70
2022/12/03 04:43:32;;;;;;;;;;;1.80;99.90;;;;;;5103952;28;19990;-68
2022/12/03 04:45:59;;;;;;;;;;;1.90;99.90;;;;;;5103216;28;19939;-70
2022/12/03 04:48:26;;;;;;;;;;;1.80;99.90;;;;;;5103943;28;19938;-69
2022/12/03 04:50:53;;;;;;;;;;;1.80;99.90;;;;;;5103604;28;19951;-69
2022/12/03 04:53:19;;;;;;;;;;;1.80;99.90;;;;;;5103732;28;19951;-69
2022/12/03 04:55:46;;;;;;;;;;;1.80;99.90;;;;;;5103653;28;19958;-69
2022/12/03 04:58:14;;;;;;;;;;;1.80;99.90;;;;;;5104420;28;19951;-69
2022/12/03 05:00:41;;;;;;;;;;;1.80;99.90;;;;;;5108230;28;19948;-69
2022/12/03 05:03:07;;;;;;;;;;;1.80;99.90;;;;;;5108087;28;20004;-69
2022/12/03 05:05:34;;;;;;;;;;;1.80;99.90;;;;;;5107558;28;20265;-69
2022/12/03 05:08:00;;;;;;;;;;;1.80;99.90;;;;;;5107263;28;19952;-70
2022/12/03 05:10:27;;;;;;;;;;;1.80;99.90;;;;;;5107944;28;19987;-69
2022/12/03 05:12:54;;;;;;;;;;;1.80;99.90;;;;;;5107340;28;19978;-69
2022/12/03 05:15:22;;;;;;;;;;;1.80;99.90;;;;;;5107554;28;19963;-69
2022/12/03 05:17:48;;;;;;;;;;;1.70;99.90;;;;;;5106960;28;19987;-69
2022/12/03 05:22:59;;;;;;;;;;;1.90;99.90;;;;;;5107230;28;19988;-69
2022/12/03 05:25:26;;;;;;;;;;;1.90;99.90;;;;;;5107405;28;20263;-69
2022/12/03 05:27:52;;;;;;;;;;;1.90;99.90;;;;;;5106575;28;19951;-69
2022/12/03 05:30:19;;;;;;;;;;;1.90;99.90;;;;;;5107599;28;19920;-69
2022/12/03 05:32:47;;;;;;;;;;;1.80;99.90;;;;;;5107282;28;19973;-69
2022/12/03 05:35:15;;;;;;;;;;;1.80;99.90;;;;;;5104941;28;19951;-69
2022/12/03 05:37:41;;;;;;;;;;;1.80;99.90;;;;;;5106897;28;19987;-69
2022/12/03 05:40:09;;;;;;;;;;;1.80;99.90;;;;;;5107314;28;19947;-69
2022/12/03 05:42:55;;;;;;;;;;;1.70;99.90;;;;;;5107110;28;19920;-69
2022/12/03 05:45:22;;;;;;;;;;;1.70;99.90;;;;;;5107335;28;19936;-69
2022/12/03 05:47:50;;;;;;;;;;;1.70;99.90;;;;;;5105943;28;20243;-69
2022/12/03 05:50:17;;;;;;;;;;;1.80;99.90;;;;;;5086470;28;19959;-69
2022/12/03 05:52:44;;;;;;;;;;;1.80;99.90;;;;;;5086609;28;19951;-69
2022/12/03 05:55:11;;;;;;;;;;;1.80;99.90;;;;;;5086478;28;19979;-70
2022/12/03 05:57:37;;;;;;;;;;;1.80;99.90;;;;;;5096620;28;19978;-69
2022/12/03 06:00:06;;;;;;;;;;;1.80;99.90;;;;;;5106809;28;20190;-69
2022/12/03 06:02:33;;;;;;;;;;;1.80;99.90;;;;;;5106800;28;19920;-69
2022/12/03 06:05:01;;;;;;;;;;;1.80;99.90;;;;;;5106479;28;19920;-69
2022/12/03 06:07:27;;;;;;;;;;;1.80;99.90;;;;;;5106082;28;19920;-69
2022/12/03 06:09:54;;;;;;;;;;;1.80;99.90;;;;;;5106594;28;19991;-69
2022/12/03 06:12:20;;;;;;;;;;;1.80;99.90;;;;;;5106685;28;19979;-69
2022/12/03 06:14:47;;;;;;;;;;;1.80;99.90;;;;;;5106622;28;19952;-69
2022/12/03 06:17:14;;;;;;;;;;;1.80;99.90;;;;;;5105806;28;20228;-69
2022/12/03 06:19:41;;;;;;;;;;;1.80;99.90;;;;;;5106254;28;20201;-69
2022/12/03 06:22:09;;;;;;;;;;;1.80;99.90;;;;;;5106571;28;19963;-69
2022/12/03 06:24:35;;;;;;;;;;;1.80;99.90;;;;;;5106449;28;19970;-69
2022/12/03 06:27:02;;;;;;;;;;;1.80;99.90;;;;;;5085619;28;19994;-69
2022/12/03 06:29:28;;;;;;;;;;;1.80;99.90;;;;;;5086070;28;20015;-68
2022/12/03 06:31:55;;;;;;;;;;;1.80;99.90;;;;;;5086140;28;20180;-69
2022/12/03 06:34:22;;;;;;;;;;;1.80;99.90;;;;;;5102480;28;19983;-69
2022/12/03 06:36:49;;;;;;;;;;;1.80;99.90;;;;;;5105804;28;19983;-69
2022/12/03 06:39:17;;;;;;;;;;;1.80;99.90;;;;;;5105871;28;19926;-69
2022/12/03 06:41:44;;;;;;;;;;;1.80;99.90;;;;;;5105665;28;20228;-69
2022/12/03 06:44:11;;;;;;;;;;;1.90;99.90;;;;;;5105626;28;19952;-69
2022/12/03 06:46:37;;;;;;;;;;;1.80;99.90;;;;;;5105411;28;19955;-69
2022/12/03 06:49:04;;;;;;;;;;;1.80;99.90;;;;;;5105882;28;19956;-68
2022/12/03 06:51:31;;;;;;;;;;;1.80;99.90;;;;;;5106081;28;20177;-69
2022/12/03 06:53:57;;;;;;;;;;;1.80;99.90;;;;;;5105648;28;20255;-70
2022/12/03 06:56:25;;;;;;;;;;;1.80;99.90;;;;;;5104943;28;19987;-69
2022/12/03 06:58:52;;;;;;;;;;;1.80;99.90;;;;;;5105915;28;19961;-69
2022/12/03 07:01:19;;;;;;;;;;;1.80;99.90;;;;;;5105556;28;20169;-69
2022/12/03 07:03:45;;;;;;;;;;;1.80;99.90;;;;;;5105407;28;20176;-69
2022/12/03 07:06:12;;;;;;;;;;;1.90;99.90;;;;;;5104797;28;20259;-70
2022/12/03 07:08:39;;;;;;;;;;;1.80;99.90;;;;;;5105730;28;20171;-69
2022/12/03 07:11:29;;;;;;;;;;;1.80;99.90;;;;;;5105840;28;19947;-69
2022/12/03 07:13:53;;;;;;;;;;;1.80;99.90;;;;;;5105052;28;19973;-69
2022/12/03 07:16:20;;;;;;;;;;;1.80;99.90;;;;;;5104730;28;19979;-70
2022/12/03 07:18:47;;;;;;;;;;;1.80;99.90;;;;;;5105332;28;20120;-69
2022/12/03 07:21:14;;;;;;;;;;;1.80;99.90;;;;;;5104558;28;19983;-68
2022/12/03 07:23:40;;;;;;;;;;;1.80;99.90;;;;;;5104871;28;19954;-69
2022/12/03 07:26:07;;;;;;;;;;;1.80;99.90;;;;;;5104600;28;20166;-68
2022/12/03 07:28:34;;;;;;;;;;;1.90;99.90;;;;;;5104801;28;19920;-69
2022/12/03 07:31:02;;;;;;;;;;;1.90;99.90;;;;;;5105066;28;19920;-69
2022/12/03 07:33:29;;;;;;;;;;;1.90;99.90;;;;;;5104990;28;20279;-69
2022/12/03 07:35:55;;;;;;;;;;;1.90;99.90;;;;;;5104920;28;20318;-69
2022/12/03 07:38:22;;;;;;;;;;;1.90;99.90;;;;;;5104492;28;19951;-69
2022/12/03 07:40:49;;;;;;;;;;;1.90;99.90;;;;;;5104828;28;20231;-69
2022/12/03 07:43:15;;;;;;;;;;;1.90;99.90;;;;;;5104612;28;19987;-69
2022/12/03 07:45:42;;;;;;;;;;;1.90;99.90;;;;;;5104709;28;20003;-69
2022/12/03 07:48:10;;;;;;;;;;;1.90;99.90;;;;;;5097821;28;20179;-69
2022/12/03 07:50:36;;;;;;;;;;;1.90;99.90;;;;;;5084668;28;20175;-69
2022/12/03 07:53:03;;;;;;;;;;;1.90;99.90;;;;;;5084608;28;19992;-68
2022/12/03 07:55:30;;;;;;;;;;;1.90;99.90;;;;;;5096696;28;19920;-69
2022/12/03 07:57:56;;;;;;;;;;;1.90;99.90;;;;;;5104271;28;19958;-69
2022/12/03 08:00:23;;;;;;;;;;;1.90;99.90;;;;;;5104905;28;19955;-69
2022/12/03 08:02:50;;;;;;;;;;;1.90;99.90;;;;;;5104625;28;19927;-69
2022/12/03 08:05:18;;;;;;;;;;;1.90;99.90;;;;;;5104718;28;19920;-68
2022/12/03 08:07:44;;;;;;;;;;;1.90;99.90;;;;;;5103802;28;19951;-69
2022/12/03 08:10:11;;;;;;;;;;;2.00;99.90;;;;;;5104592;28;19947;-69
2022/12/03 08:12:41;;;;;;;;;;;1.90;99.90;;;;;;5104208;28;19959;-69
2022/12/03 08:15:10;;;;;;;;;;;1.90;99.90;;;;;;5104371;28;20057;-68
2022/12/03 08:17:38;;;;;;;;;;;1.90;99.90;;;;;;5103596;28;20199;-68
2022/12/03 08:20:05;;;;;;;;;;;1.90;99.90;;;;;;5104329;28;19920;-69
2022/12/03 08:22:33;;;;;;;;;;;1.90;99.90;;;;;;5104066;28;20232;-69
2022/12/03 08:25:00;;;;;;;;;;;1.80;99.90;;;;;;5104121;28;19928;-69
2022/12/03 08:27:27;;;;;;;;;;;1.80;99.90;;;;;;5103657;28;19987;-73
2022/12/03 08:29:57;;;;;;;;;;;1.80;99.90;;;;;;5104141;28;19920;-69
2022/12/03 08:32:24;;;;;;;;;;;1.80;99.90;;;;;;5103730;28;19960;-69
2022/12/03 08:34:50;;;;;;;;;;;1.80;99.90;;;;;;5103684;28;19984;-69
2022/12/03 08:37:18;;;;;;;;;;;1.80;99.90;;;;;;5103443;28;20001;-70
2022/12/03 08:39:47;;;;;;;;;;;1.80;99.90;;;;;;5103755;28;20239;-69
2022/12/03 08:45:20;;;;;;;;;;;1.70;99.90;;;;;;5103890;28;19985;-69
2022/12/03 08:47:47;;;;;;;;;;;1.70;99.90;;;;;;5103519;28;19955;-69
2022/12/03 08:50:25;;;;;;;;;;;1.70;99.90;;;;;;5103995;28;20119;-69
2022/12/03 08:52:52;;;;;;;;;;;1.70;99.90;;;;;;5106116;28;20287;-69
2022/12/03 08:55:33;;;;;;;;;;;1.80;99.90;;;;;;5111114;28;19951;-69
2022/12/03 08:58:00;;;;;;;;;;;1.80;99.90;;;;;;5123495;28;19991;-69
2022/12/03 09:00:27;;;;;;;;;;;1.80;99.90;;;;;;5103371;28;19947;-69
2022/12/03 09:02:54;;;;;;;;;;;1.80;99.90;;;;;;5083722;28;19970;-69
2022/12/03 09:05:22;;;;;;;;;;;1.80;99.90;;;;;;5083622;28;19955;-69
2022/12/03 09:07:48;;;;;;;;;;;1.80;99.90;;;;;;5085511;28;20179;-72
2022/12/03 09:10:15;;;;;;;;;;;1.80;99.90;;;;;;5103676;28;20141;-69
2022/12/03 09:12:43;;;;;;;;;;;1.80;99.90;;;;;;5103391;28;19988;-68
2022/12/03 09:15:10;;;;;;;;;;;1.80;99.90;;;;;;5103794;28;19951;-70
2022/12/03 09:17:37;;;;;;;;;;;1.80;99.90;;;;;;5102939;28;20231;-69
2022/12/03 09:20:04;;;;;;;;;;;1.80;99.90;;;;;;5103576;28;19950;-70
2022/12/03 09:22:31;;;;;;;;;;;1.80;99.90;;;;;;5103668;28;19959;-69
2022/12/03 09:24:58;;;;;;;;;;;1.70;99.90;;;;;;5103331;28;19986;-69
2022/12/03 09:27:24;;;;;;;;;;;1.80;99.90;;;;;;5102823;28;20169;-68
2022/12/03 09:29:52;;;;;;;;;;;1.80;99.90;;;;;;5103623;28;19952;-68
2022/12/03 09:32:19;;;;;;;;;;;1.80;99.90;;;;;;5103592;28;19994;-69
2022/12/03 09:34:46;;;;;;;;;;;1.80;99.90;;;;;;5103396;28;19920;-68
2022/12/03 09:37:12;;;;;;;;;;;1.90;99.90;;;;;;5102944;28;19920;-69
2022/12/03 09:39:39;;;;;;;;;;;1.90;99.90;;;;;;5103511;28;20000;-70
2022/12/03 09:42:05;;;;;;;;;;;1.90;99.90;;;;;;5103196;28;19988;-69
2022/12/03 09:44:33;;;;;;;;;;;1.90;99.90;;;;;;5104746;28;19987;-69
2022/12/03 09:47:01;;;;;;;;;;;1.90;99.90;;;;;;5106227;28;19973;-68
2022/12/03 09:49:28;;;;;;;;;;;1.90;99.90;;;;;;5107158;28;19992;-69
2022/12/03 09:51:56;;;;;;;;;;;1.90;99.90;;;;;;5101465;28;21061;-68
2022/12/03 09:54:24;;;;;;;;;;;1.90;99.90;;;;;;5105061;28;19947;-69
2022/12/03 09:56:51;;;;;;;;;;;1.90;99.90;;;;;;5099778;28;20144;-70
2022/12/03 09:59:26;;;;;;;;;;;2.00;99.90;;;;;;5103688;28;19962;-69
2022/12/03 10:01:52;;;;;;;;;;;2.00;99.90;;;;;;5126968;28;19955;-69
2022/12/03 10:04:21;;;;;;;;;;;2.00;99.90;;;;;;5106564;28;19955;-69
2022/12/03 10:06:48;;;;;;;;;;;2.10;99.90;;;;;;5105814;28;19927;-68
2022/12/03 10:09:19;;;;;;;;;;;2.10;99.90;;;;;;5106771;28;19948;-68
2022/12/03 10:11:46;;;;;;;;;;;2.10;99.90;;;;;;5097390;28;19924;-68
2022/12/03 10:14:13;;;;;;;;;;;2.10;99.90;;;;;;5097098;28;19951;-68
2022/12/03 10:16:40;;;;;;;;;;;2.10;99.90;;;;;;5105541;28;20265;-68
2022/12/03 10:19:11;;;;;;;;;;;2.10;99.90;;;;;;5101650;28;19955;-69
2022/12/03 10:21:39;;;;;;;;;;;2.10;99.90;;;;;;5094412;28;20116;-69
2022/12/03 10:24:27;;;;;;;;;;;2.10;99.90;;;;;;5086225;28;20171;-70
2022/12/03 10:26:55;;;;;;;;;;;2.10;99.90;;;;;;5089077;28;19927;-69
2022/12/03 10:29:23;;;;;;;;;;;2.10;99.90;;;;;;5106384;28;20175;-69
2022/12/03 10:31:54;;;;;;;;;;;2.00;99.90;;;;;;5105935;28;19967;-69
2022/12/03 10:34:24;;;;;;;;;;;2.00;99.90;;;;;;5106241;28;20168;-70
2022/12/03 10:37:08;;;;;;;;;;;2.10;99.90;;;;;;5105374;28;19920;-70
2022/12/03 10:39:51;;;;;;;;;;;2.00;99.90;;;;;;5105987;28;20224;-70
2022/12/03 10:42:18;;;;;;;;;;;2.00;99.90;;;;;;5106064;28;19987;-69
2022/12/03 10:44:45;;;;;;;;;;;2.00;99.90;;;;;;5105336;28;19956;-69
2022/12/03 10:47:13;;;;;;;;;;;2.00;99.90;;;;;;5105142;28;19920;-70
2022/12/03 10:49:40;;;;;;;;;;;2.00;99.90;;;;;;5105913;28;19983;-70
2022/12/03 10:52:15;;;;;;;;;;;2.10;99.90;;;;;;5097941;28;20156;-70
2022/12/03 10:54:42;;;;;;;;;;;2.10;99.90;;;;;;5105773;28;19947;-70
2022/12/03 10:57:09;;;;;;;;;;;2.10;99.90;;;;;;5104257;28;19983;-69
2022/12/03 10:59:36;;;;;;;;;;;2.10;99.90;;;;;;5112713;28;19983;-69
2022/12/03 11:02:03;;;;;;;;;;;2.10;99.90;;;;;;5126191;28;19926;-69
2022/12/03 11:04:31;;;;;;;;;;;2.20;99.90;;;;;;5119643;28;20232;-69
2022/12/03 11:06:58;;;;;;;;;;;2.10;99.90;;;;;;5102353;28;20009;-68
2022/12/03 11:09:27;;;;;;;;;;;2.10;99.90;;;;;;5104390;28;19948;-68
2022/12/03 11:11:54;;;;;;;;;;;2.20;99.90;;;;;;5104808;28;19942;-69
2022/12/03 11:14:39;;;;;;;;;;;2.20;99.90;;;;;;5105091;28;19979;-70
2022/12/03 11:17:07;;;;;;;;;;;2.20;99.90;;;;;;5104402;28;19955;-69
2022/12/03 11:19:44;;;;;;;;;;;2.20;99.90;;;;;;5104175;28;19927;-70
2022/12/03 11:22:32;;;;;;;;;;;2.20;99.90;;;;;;5105394;28;19970;-69
2022/12/03 11:25:16;;;;;;;;;;;2.20;99.90;;;;;;5098154;28;20175;-69
2022/12/03 11:27:45;;;;;;;;;;;2.20;99.90;;;;;;5063564;28;20255;-69
2022/12/03 11:30:11;;;;;;;;;;;2.10;99.90;;;;;;5097500;28;20167;-69
2022/12/03 11:33:06;;;;;;;;;;;2.10;99.90;;;;;;5104837;28;19962;-70
2022/12/03 11:35:59;;;;;;;;;;;2.10;99.90;;;;;;5104736;28;19920;-69
2022/12/03 11:38:59;;;;;;;;;;;2.00;99.90;;;;;;5104700;28;19991;-69
2022/12/03 11:41:27;;;;;;;;;;;2.00;99.90;;;;;;5103199;28;19992;-70
2022/12/03 11:44:27;;;;;;;;;;;2.10;99.90;;;;;;5094638;28;20020;-68
2022/12/03 11:46:54;;;;;;;;;;;2.00;99.90;;;;;;5116649;28;19919;-70
2022/12/03 11:49:32;;;;;;;;;;;2.00;99.90;;;;;;5124682;28;19966;-70
2022/12/03 11:51:58;;;;;;;;;;;2.00;99.90;;;;;;5098577;28;19987;-69
2022/12/03 11:54:25;;;;;;;;;;;1.90;99.90;;;;;;5112909;28;20162;-69
2022/12/03 11:56:53;;;;;;;;;;;2.00;99.90;;;;;;5097826;28;19951;-69
2022/12/03 11:59:21;;;;;;;;;;;1.90;99.90;;;;;;5096421;28;20176;-69
2022/12/03 12:01:48;;;;;;;;;;;1.90;99.90;;;;;;5090323;28;19927;-69
2022/12/03 12:04:27;;;;;;;;;;;1.90;99.90;;;;;;5099352;28;20329;-69
2022/12/03 12:06:53;;;;;;;;;;;1.90;99.90;;;;;;5103399;28;19977;-69
2022/12/03 12:09:35;;;;;;;;;;;1.90;99.90;;;;;;5102179;28;20151;-69
2022/12/03 12:12:16;;;;;;;;;;;1.90;99.90;;;;;;5083050;28;20197;-69
2022/12/03 12:14:44;;;;;;;;;;;1.90;99.90;;;;;;5092249;28;19999;-70
2022/12/03 12:17:26;;;;;;;;;;;1.90;99.90;;;;;;5103296;28;20206;-69
2022/12/03 12:20:10;;;;;;;;;;;1.90;99.90;;;;;;5097794;28;19944;-69
2022/12/03 12:22:36;;;;;;;;;;;1.90;99.90;;;;;;5095210;28;19959;-69
2022/12/03 12:25:05;;;;;;;;;;;2.00;99.90;;;;;;5095658;28;19963;-66
2022/12/03 12:27:34;;;;;;;;;;;1.90;99.90;;;;;;5103134;28;19948;-70
2022/12/03 12:30:04;;;;;;;;;;;2.00;99.90;;;;;;5103951;28;19983;-70
2022/12/03 12:32:31;;;;;;;;;;;2.00;99.90;;;;;;5104519;28;19920;-70
2022/12/03 12:35:00;;;;;;;;;;;2.00;99.90;;;;;;5100180;28;19967;-69
2022/12/03 12:37:32;;;;;;;;;;;2.00;99.90;;;;;;5110640;28;20248;-71
2022/12/03 12:40:00;;;;;;;;;;;1.90;99.90;;;;;;5099903;28;19920;-70
2022/12/03 12:42:48;;;;;;;;;;;2.00;99.90;;;;;;5080143;28;20130;-70
2022/12/03 12:45:17;;;;;;;;;;;2.00;99.90;;;;;;5097589;28;19959;-71
2022/12/03 12:47:47;;;;;;;;;;;2.00;99.90;;;;;;5103110;28;20293;-70
2022/12/03 12:50:14;;;;;;;;;;;1.90;99.90;;;;;;5102833;28;20089;-69
2022/12/03 12:52:46;;;;;;;;;;;1.90;99.90;;;;;;5102947;28;19939;-70
2022/12/03 12:55:15;;;;;;;;;;;1.90;99.90;;;;;;5103851;28;19920;-70
2022/12/03 12:57:41;;;;;;;;;;;1.90;99.90;;;;;;5082729;28;19979;-69
2022/12/03 13:00:13;;;;;;;;;;;1.80;99.90;;;;;;5092755;28;19990;-69
2022/12/03 13:02:44;;;;;;;;;;;1.80;99.90;;;;;;5103795;28;19971;-70
2022/12/03 13:05:12;;;;;;;;;;;1.80;99.90;;;;;;5103638;28;19987;-72
2022/12/03 13:07:39;;;;;;;;;;;1.80;99.90;;;;;;5102046;28;19920;-69
2022/12/03 13:10:26;;;;;;;;;;;1.80;99.90;;;;;;5106791;28;19951;-69
2022/12/03 13:12:53;;;;;;;;;;;1.80;99.90;;;;;;5100153;28;19984;-69
2022/12/03 13:15:34;;;;;;;;;;;1.90;99.90;;;;;;5122863;28;19983;-69
2022/12/03 13:18:10;;;;;;;;;;;1.90;99.90;;;;;;5113909;28;19959;-69
2022/12/03 13:20:37;;;;;;;;;;;2.00;99.90;;;;;;5106542;28;20246;-72
2022/12/03 13:23:05;;;;;;;;;;;2.00;99.90;;;;;;5107439;28;19955;-69
2022/12/03 13:25:34;;;;;;;;;;;2.00;99.90;;;;;;5107516;28;19951;-70
2022/12/03 13:28:00;;;;;;;;;;;2.00;99.90;;;;;;5121895;28;19955;-69
2022/12/03 13:30:28;;;;;;;;;;;2.00;99.90;;;;;;5092004;28;20198;-68
2022/12/03 13:32:57;;;;;;;;;;;2.00;99.90;;;;;;5084502;28;19921;-70
2022/12/03 13:35:29;;;;;;;;;;;2.00;99.90;;;;;;5086909;28;19961;-68
2022/12/03 13:37:57;;;;;;;;;;;2.00;99.90;;;;;;5095881;28;19966;-70
2022/12/03 13:40:27;;;;;;;;;;;2.00;99.90;;;;;;5107174;28;19948;-69
2022/12/03 13:42:55;;;;;;;;;;;1.90;99.90;;;;;;5104198;28;20228;-68
2022/12/03 13:45:30;;;;;;;;;;;1.80;99.90;;;;;;5086390;28;19948;-69
2022/12/03 13:47:58;;;;;;;;;;;1.80;99.90;;;;;;5085970;28;19921;-69
2022/12/03 13:50:30;;;;;;;;;;;1.80;99.90;;;;;;5106755;28;19920;-68
2022/12/03 13:52:57;;;;;;;;;;;1.80;99.90;;;;;;5104889;28;19920;-68
2022/12/03 13:55:25;;;;;;;;;;;1.80;99.90;;;;;;5106633;28;19987;-68
2022/12/03 13:57:51;;;;;;;;;;;1.80;99.90;;;;;;5105978;28;19991;-68
2022/12/03 14:00:18;;;;;;;;;;;1.80;99.90;;;;;;5087165;28;19920;-68
2022/12/03 14:02:45;;;;;;;;;;;1.80;99.90;;;;;;5086203;28;19927;-68
2022/12/03 14:05:11;;;;;;;;;;;1.80;99.90;;;;;;5087564;28;19920;-68
2022/12/03 14:07:39;;;;;;;;;;;1.80;99.90;;;;;;5105788;28;19962;-68
2022/12/03 14:10:07;;;;;;;;;;;1.70;99.90;;;;;;5106450;28;19955;-68
2022/12/03 14:12:34;;;;;;;;;;;1.70;99.90;;;;;;5106255;28;19987;-68
2022/12/03 14:15:00;;;;;;;;;;;1.70;99.90;;;;;;5106527;28;19928;-68
2022/12/03 14:17:27;;;;;;;;;;;1.60;99.90;;;;;;5105941;28;19955;-68
2022/12/03 14:19:54;;;;;;;;;;;1.70;99.90;;;;;;5106507;28;19947;-68
2022/12/03 14:22:22;;;;;;;;;;;1.70;99.90;;;;;;5105988;28;19920;-68
2022/12/03 14:24:50;;;;;;;;;;;1.60;99.90;;;;;;5105559;28;19920;-71
2022/12/03 14:27:16;;;;;;;;;;;1.60;99.90;;;;;;5105350;28;19959;-73
2022/12/03 14:29:43;;;;;;;;;;;1.70;99.90;;;;;;5106069;28;19924;-71
2022/12/03 14:32:10;;;;;;;;;;;1.70;99.90;;;;;;5104608;28;20168;-71
2022/12/03 14:34:36;;;;;;;;;;;1.70;99.90;;;;;;5106198;28;19947;-71
2022/12/03 14:37:03;;;;;;;;;;;1.70;99.90;;;;;;5105449;28;19954;-71
2022/12/03 14:39:30;;;;;;;;;;;1.70;99.90;;;;;;5106054;28;19987;-71
2022/12/03 14:42:13;;;;;;;;;;;1.60;99.90;;;;;;5106038;28;20242;-71
2022/12/03 14:44:40;;;;;;;;;;;1.60;99.90;;;;;;5106109;28;19951;-70
2022/12/03 14:47:06;;;;;;;;;;;1.60;99.90;;;;;;5105446;28;19947;-71
2022/12/03 14:49:33;;;;;;;;;;;1.60;99.90;;;;;;5105675;28;20274;-70
2022/12/03 14:52:00;;;;;;;;;;;1.60;99.90;;;;;;5106071;28;19927;-71
2022/12/03 14:54:27;;;;;;;;;;;1.60;99.90;;;;;;5105948;28;19982;-71
2022/12/03 14:56:54;;;;;;;;;;;1.60;99.90;;;;;;5105257;28;20184;-70